Map

Track Data

SID SEASON NUMBER BASIN SUBBASIN NAME ISO_TIME NATURE LAT LON WMO_WIND WMO_PRES WMO_AGENCY TRACK_TYPE DIST2LAND LANDFALL IFLAG USA_AGENCY USA_ATCF_ID USA_LAT USA_LON USA_RECORD USA_STATUS USA_WIND USA_PRES USA_SSHS USA_R34_NE USA_R34_SE USA_R34_SW USA_R34_NW USA_R50_NE USA_R50_SE USA_R50_SW USA_R50_NW USA_R64_NE USA_R64_SE USA_R64_SW USA_R64_NW USA_POCI USA_ROCI USA_RMW USA_EYE TOKYO_LAT TOKYO_LON TOKYO_GRADE TOKYO_WIND TOKYO_PRES TOKYO_R50_DIR TOKYO_R50_LONG TOKYO_R50_SHORT TOKYO_R30_DIR TOKYO_R30_LONG TOKYO_R30_SHORT TOKYO_LAND CMA_LAT CMA_LON CMA_CAT CMA_WIND CMA_PRES HKO_LAT HKO_LON HKO_CAT HKO_WIND HKO_PRES NEWDELHI_LAT NEWDELHI_LON NEWDELHI_GRADE NEWDELHI_WIND NEWDELHI_PRES NEWDELHI_CI NEWDELHI_DP NEWDELHI_POCI REUNION_LAT REUNION_LON REUNION_TYPE REUNION_WIND REUNION_PRES REUNION_TNUM REUNION_CI REUNION_RMW REUNION_R34_NE REUNION_R34_SE REUNION_R34_SW REUNION_R34_NW REUNION_R50_NE REUNION_R50_SE REUNION_R50_SW REUNION_R50_NW REUNION_R64_NE REUNION_R64_SE REUNION_R64_SW REUNION_R64_NW BOM_LAT BOM_LON BOM_TYPE BOM_WIND BOM_PRES BOM_TNUM BOM_CI BOM_RMW BOM_R34_NE BOM_R34_SE BOM_R34_SW BOM_R34_NW BOM_R50_NE BOM_R50_SE BOM_R50_SW BOM_R50_NW BOM_R64_NE BOM_R64_SE BOM_R64_SW BOM_R64_NW BOM_ROCI BOM_POCI BOM_EYE BOM_POS_METHOD BOM_PRES_METHOD NADI_LAT NADI_LON NADI_CAT NADI_WIND NADI_PRES WELLINGTON_LAT WELLINGTON_LON WELLINGTON_WIND WELLINGTON_PRES DS824_LAT DS824_LON DS824_STAGE DS824_WIND DS824_PRES TD9636_LAT TD9636_LON TD9636_STAGE TD9636_WIND TD9636_PRES TD9635_LAT TD9635_LON TD9635_WIND TD9635_PRES TD9635_ROCI NEUMANN_LAT NEUMANN_LON NEUMANN_CLASS NEUMANN_WIND NEUMANN_PRES MLC_LAT MLC_LON MLC_CLASS MLC_WIND MLC_PRES USA_GUST BOM_GUST BOM_GUST_PER REUNION_GUST REUNION_GUST_PER USA_SEAHGT USA_SEARAD_NE USA_SEARAD_SE USA_SEARAD_SW USA_SEARAD_NW STORM_SPEED STORM_DIR
1905011S14070 1905 2 SI MM NOT_NAMED 1905-01-11 00:00:00 TS -14.3000 69.7000 main 1429 1396 _________O____ -1 -14.3000 69.7000 TC 7 245
1905011S14070 1905 2 SI MM NOT_NAMED 1905-01-11 03:00:00 TS -14.4526 69.3576 main 1390 1347 _________P____ -1 -14.4526 69.3576 TC 7 246
1905011S14070 1905 2 SI MM NOT_NAMED 1905-01-11 06:00:00 TS -14.6000 69.0000 main 1347 1304 _________O____ -1 -14.6000 69.0000 TC 8 248
1905011S14070 1905 2 SI MM NOT_NAMED 1905-01-11 09:00:00 TS -14.7424 68.6149 main 1304 1255 _________P____ -1 -14.7424 68.6149 TC 8 249
1905011S14070 1905 2 SI MM NOT_NAMED 1905-01-11 12:00:00 TS -14.9000 68.2000 main 1255 1207 _________O____ -1 -14.9000 68.2000 TC 9 247
1905011S14070 1905 2 SI MM NOT_NAMED 1905-01-11 15:00:00 TS -15.1000 67.7575 main 1207 1149 _________P____ -1 -15.1000 67.7575 TC 10 245
1905011S14070 1905 2 SI MM NOT_NAMED 1905-01-11 18:00:00 TS -15.3000 67.3000 main 1149 1106 _________O____ -1 -15.3000 67.3000 TC 9 249
1905011S14070 1905 2 SI MM NOT_NAMED 1905-01-11 21:00:00 TS -15.4348 66.8721 main 1106 1049 _________P____ -1 -15.4348 66.8721 TC 9 251
1905011S14070 1905 2 SI MM NOT_NAMED 1905-01-12 00:00:00 TS -15.6000 66.4000 main 1049 986 _________O____ -1 -15.6000 66.4000 TC 11 247
1905011S14070 1905 2 SI MM NOT_NAMED 1905-01-12 03:00:00 TS -15.8700 65.8225 main 976 904 _________P____ -1 -15.8700 65.8225 TC 13 243
1905011S14070 1905 2 SI MM NOT_NAMED 1905-01-12 06:00:00 TS -16.2000 65.2000 main 904 832 _________O____ -1 -16.2000 65.2000 TC 14 240
1905011S14070 1905 2 SI MM NOT_NAMED 1905-01-12 09:00:00 TS -16.5348 64.5998 main 832 754 _________P____ -1 -16.5348 64.5998 TC 14 239
1905011S14070 1905 2 SI MM NOT_NAMED 1905-01-12 12:00:00 TS -16.9000 64.0000 main 754 677 _________O____ -1 -16.9000 64.0000 TC 14 237
1905011S14070 1905 2 SI MM NOT_NAMED 1905-01-12 15:00:00 TS -17.2848 63.3997 main 677 599 _________P____ -1 -17.2848 63.3997 TC 14 235
1905011S14070 1905 2 SI MM NOT_NAMED 1905-01-12 18:00:00 TS -17.7000 62.8000 main 599 523 _________O____ -1 -17.7000 62.8000 TC 15 234
1905011S14070 1905 2 SI MM NOT_NAMED 1905-01-12 21:00:00 TS -18.1426 62.1700 main 523 441 _________P____ -1 -18.1426 62.1700 TC 15 232
1905011S14070 1905 2 SI MM NOT_NAMED 1905-01-13 00:00:00 TS -18.6000 61.6000 main 441 384 _________O____ -1 -18.6000 61.6000 TC 13 227
1905011S14070 1905 2 SI MM NOT_NAMED 1905-01-13 03:00:00 TS -19.0422 61.1621 main 384 326 _________P____ -1 -19.0422 61.1621 TC 12 220
1905011S14070 1905 2 SI MM NOT_NAMED 1905-01-13 06:00:00 TS -19.5000 60.8000 main 326 275 _________O____ -1 -19.5000 60.8000 TC 12 217
1905011S14070 1905 2 SI MM NOT_NAMED 1905-01-13 09:00:00 TS -19.9775 60.4199 main 273 240 _________P____ -1 -19.9775 60.4199 TC 12 213
1905011S14070 1905 2 SI MM NOT_NAMED 1905-01-13 12:00:00 TS -20.5000 60.1000 main 240 225 _________O____ -1 -20.5000 60.1000 TC 12 205
1905011S14070 1905 2 SI MM NOT_NAMED 1905-01-13 15:00:00 TS -21.0774 59.8623 main 236 226 _________P____ -1 -21.0774 59.8623 TC 13 197
1905011S14070 1905 2 SI MM NOT_NAMED 1905-01-13 18:00:00 TS -21.7000 59.7000 main 247 247 _________O____ -1 -21.7000 59.7000 TC 13 191
1905011S14070 1905 2 SI MM NOT_NAMED 1905-01-13 21:00:00 TS -22.3450 59.5876 main 281 281 _________P____ -1 -22.3450 59.5876 TC 13 188
1905011S14070 1905 2 SI MM NOT_NAMED 1905-01-14 00:00:00 TS -23.0000 59.5000 main 335 _________O____ -1 -23.0000 59.5000 TC 13 187

About IBTrACS Database

This database is a web-friendly format of International Best Track Archive for Climate Stewardship (IBTrACS), a global best track data archive curated by NOAA dating back to 1842.

Updated: 2021-12-01